Minneapolis-St Paul International/Wold-Chamberlain Airport
KMSP : now visible

Airfield :











YOU CAN JOIN US ON...

 
LOGIN :

Register | Disclaimer

   EN    FR    IT 

 









Legend :    VFR   Marginal VFR   IFR   Intensive IFR   Very Intensive IFR
Visi :
Ceiling :
>= 8 km
>= 3000ft
5 to 8 km
1000 to 3000 ft
1500m to 5 km
500 to 1000 ft
800 to 1500m
200 to 500 ft
< 800m
< 200 ft
Symbols :   Thunderstorms  Fog  Heavy snow  Heavy precipitations  Wind > 20 kt






- Airport Elevation : 841 ft
- IATA code : MSP


KMSP - Minneapolis-St Paul International/Wold-Chamberlain

CURRENT METAR :
  • 060253Z 11008KT 10SM SCT140 09/M02 A3002 RMK AO2 SLP169 T00891022 56010

EXPIRED METARs :
  • 060153Z 14006KT 10SM SCT150 09/M03 A3003 RMK AO2 SLP175 T00941033
  • 060053Z 14007KT 10SM FEW120 SCT150 11/M03 A3003 RMK AO2 SLP176 T01061028
  • 052353Z 16010KT 10SM FEW120 SCT150 12/M03 A3005 RMK AO2 SLP181 T01221033 10133 20100 58016

TAF KMSP
Valid from the 06 at 03:00 until the 07 at 06:00 UTC


060246Z 0603/0706 13007KT P6SM SCT120
FM061400 14007KT P6SM BKN030
FM061800 15008KT P6SM BKN018
FM070400 14007KT P6SM BKN010



MET'MAP, your aeronautical weather chart ! - Copyright ORBIFLY December 2007 - Disclaimer

ORBIFLY MET'MAP TEAM :

Programming & Development : Alexandra Zaïnal
Concept & original design : Baudouin d'Aumeries
Assistance for programming : Marc-Olivier Méhu
Technical & hardware support : Manuel Goepfert

Contact : metmap@orbifly.com




SOURCES & CREDITS :

   NOAA       Earth
Advisory